createdAt,value
2018-12-14T00:01:27.479Z,96748.44
2018-12-14T00:03:54.999Z,97454.82
2018-12-14T00:06:22.501Z,97464.31
2018-12-14T00:08:50.042Z,97453.93
2018-12-14T00:11:17.544Z,96376.38
2018-12-14T00:13:45.052Z,97451.28
2018-12-14T00:16:12.552Z,97459.55
2018-12-14T00:18:40.086Z,97459.20
2018-12-14T00:21:07.641Z,97462.02
2018-12-14T00:23:35.140Z,97462.91
2018-12-14T00:26:02.650Z,97462.41
2018-12-14T00:28:30.161Z,97459.77
2018-12-14T00:30:57.675Z,97460.50
2018-12-14T00:33:25.174Z,97459.44
2018-12-14T00:35:52.667Z,97454.84
2018-12-14T00:38:20.199Z,97462.98
2018-12-14T00:40:47.716Z,97458.76
2018-12-14T00:43:15.223Z,97462.25
2018-12-14T00:45:42.735Z,97463.87
2018-12-14T00:48:10.245Z,97461.06
2018-12-14T00:50:37.802Z,97464.94
2018-12-14T00:53:05.322Z,97460.17
2018-12-14T00:55:32.833Z,97465.28
2018-12-14T00:58:00.391Z,97458.77
2018-12-14T01:00:27.912Z,97459.84
2018-12-14T01:02:55.409Z,97455.62
2018-12-14T01:05:22.938Z,97456.69
2018-12-14T01:07:50.470Z,97468.98
2018-12-14T01:10:17.985Z,97471.12
2018-12-14T01:12:45.505Z,97472.34
2018-12-14T01:15:13.018Z,97479.07
2018-12-14T01:17:40.542Z,97475.55
2018-12-14T01:20:09.830Z,97478.56
2018-12-14T01:22:37.396Z,97482.78
2018-12-14T01:25:04.982Z,97493.55
2018-12-14T01:27:32.487Z,97488.78
2018-12-14T01:29:59.993Z,97491.97
2018-12-14T01:32:27.500Z,97493.03
2018-12-14T01:34:55.024Z,97494.61
2018-12-14T01:37:22.539Z,97505.89
2018-12-14T01:39:50.074Z,97500.45
2018-12-14T01:42:17.574Z,97505.89
2018-12-14T01:44:45.070Z,97508.02
2018-12-14T01:47:12.575Z,97505.73
2018-12-14T01:49:40.067Z,97502.91
2018-12-14T01:52:07.582Z,97502.74
2018-12-14T01:54:35.104Z,97498.70
2018-12-14T01:57:02.627Z,97497.30
2018-12-14T01:59:30.151Z,97489.34
2018-12-14T02:01:57.649Z,97491.64
2018-12-14T02:04:25.148Z,97491.80
2018-12-14T02:06:52.640Z,97481.92
2018-12-14T02:09:20.175Z,97472.91
2018-12-14T02:11:47.716Z,97476.83
2018-12-14T02:14:15.241Z,97482.10
2018-12-14T02:16:42.746Z,97480.14
2018-12-14T02:19:10.251Z,97476.27
2018-12-14T02:21:37.769Z,97485.25
2018-12-14T02:24:05.273Z,97473.29
2018-12-14T02:26:32.787Z,97471.33
2018-12-14T02:29:00.293Z,97474.14
2018-12-14T02:31:27.798Z,97480.14
2018-12-14T02:33:55.321Z,97475.92
2018-12-14T02:36:22.866Z,97471.72
2018-12-14T02:38:50.389Z,97464.14
2018-12-14T02:41:17.881Z,97461.67
2018-12-14T02:43:45.565Z,97463.77
2018-12-14T02:46:13.078Z,97465.55
2018-12-14T02:48:40.605Z,97457.59
2018-12-14T02:51:08.133Z,97470.66
2018-12-14T02:53:35.688Z,97469.25
2018-12-14T02:56:03.190Z,97471.04
2018-12-14T02:58:30.685Z,97472.10
2018-12-14T03:00:58.224Z,97474.41
2018-12-14T03:03:25.717Z,97469.64
2018-12-14T03:05:53.209Z,97475.98
2018-12-14T03:08:20.769Z,97476.70
2018-12-14T03:10:48.293Z,97485.30
2018-12-14T03:13:15.867Z,97459.98
2018-12-14T03:15:43.435Z,97495.89
2018-12-14T03:18:10.941Z,97488.48
2018-12-14T03:20:38.458Z,97493.77
2018-12-14T03:23:05.983Z,97485.47
2018-12-14T03:25:33.510Z,97485.67
2018-12-14T03:28:01.031Z,97486.36
2018-12-14T03:30:28.538Z,97491.64
2018-12-14T03:32:56.053Z,97499.05
2018-12-14T03:35:24.361Z,97491.64
2018-12-14T03:37:51.869Z,97488.48
2018-12-14T03:40:19.406Z,97496.23
2018-12-14T03:42:46.941Z,97498.48
2018-12-14T03:45:14.447Z,97498.48
2018-12-14T03:47:41.983Z,97499.94
2018-12-14T03:50:09.488Z,97499.25
2018-12-14T03:52:37.003Z,97501.89
2018-12-14T03:55:04.899Z,97509.98
2018-12-14T03:57:32.417Z,97505.94
2018-12-14T03:59:59.914Z,97503.98
2018-12-14T04:02:27.425Z,97508.19
2018-12-14T04:04:54.928Z,97500.95
2018-12-14T04:07:22.481Z,97508.53
2018-12-14T04:09:49.983Z,97507.98
2018-12-14T04:12:17.517Z,97505.67
2018-12-14T04:14:45.045Z,97503.20
2018-12-14T04:17:12.568Z,96899.73
2018-12-14T04:19:40.109Z,97515.89
2018-12-14T04:22:07.659Z,97520.83
2018-12-14T04:24:35.157Z,97524.40
2018-12-14T04:27:02.653Z,97518.95
2018-12-14T04:29:30.171Z,97524.06
2018-12-14T04:31:58.448Z,97384.83
2018-12-14T04:34:25.964Z,97531.64
2018-12-14T04:36:53.485Z,97531.13
2018-12-14T04:39:20.999Z,97532.19
2018-12-14T04:41:48.506Z,97532.02
2018-12-14T04:44:16.006Z,97531.30
2018-12-14T04:46:43.619Z,97538.70
2018-12-14T04:49:11.244Z,97539.94
2018-12-14T04:51:38.750Z,97537.13
2018-12-14T04:54:06.255Z,97533.94
2018-12-14T04:56:33.776Z,97540.07
2018-12-14T04:59:01.293Z,97542.20
2018-12-14T05:01:28.797Z,97542.53
2018-12-14T05:03:56.322Z,97538.48
2018-12-14T05:06:23.826Z,97541.30
2018-12-14T05:08:51.332Z,97537.27
2018-12-14T05:11:18.841Z,97534.79
2018-12-14T05:13:46.380Z,97542.70
2018-12-14T05:16:13.885Z,97541.68
2018-12-14T05:18:41.393Z,97544.11
2018-12-14T05:21:08.909Z,97541.81
2018-12-14T05:23:36.448Z,97544.62
2018-12-14T05:26:03.989Z,97541.47
2018-12-14T05:28:31.524Z,97543.05
2018-12-14T05:30:59.030Z,97545.17
2018-12-14T05:33:26.548Z,97548.50
2018-12-14T05:35:54.050Z,97556.07
2018-12-14T05:38:21.554Z,97543.94
2018-12-14T05:40:49.049Z,97549.05
2018-12-14T05:43:16.557Z,97549.77
2018-12-14T05:45:44.071Z,97547.51
2018-12-14T05:48:11.626Z,97558.45
2018-12-14T05:50:39.171Z,97561.09
2018-12-14T05:53:06.741Z,97558.58
2018-12-14T05:55:34.246Z,97561.59
2018-12-14T05:58:01.822Z,97408.61
2018-12-14T06:00:29.355Z,97566.16
2018-12-14T06:02:56.872Z,97567.05
2018-12-14T06:05:24.375Z,97564.79
2018-12-14T06:07:51.882Z,97575.73
2018-12-14T06:10:19.382Z,97574.31
2018-12-14T06:12:46.885Z,97571.13
2018-12-14T06:15:14.396Z,97576.79
2018-12-14T06:17:41.911Z,97575.55
2018-12-14T06:20:09.454Z,97579.59
2018-12-14T06:22:37.004Z,97589.09
2018-12-14T06:25:04.985Z,97585.94
2018-12-14T06:27:32.516Z,97583.13
2018-12-14T06:30:00.015Z,97584.53
2018-12-14T06:32:27.557Z,97587.89
2018-12-14T06:34:55.063Z,97587.20
2018-12-14T06:37:23.129Z,97588.09
2018-12-14T06:39:50.655Z,97589.88
2018-12-14T06:42:18.470Z,97586.72
2018-12-14T06:44:46.035Z,97591.45
2018-12-14T06:47:13.565Z,97594.78
2018-12-14T06:49:41.073Z,97589.50
2018-12-14T06:52:08.588Z,97595.16
2018-12-14T06:54:36.093Z,97591.45
2018-12-14T06:57:03.606Z,97589.52
2018-12-14T06:59:31.142Z,97593.91
2018-12-14T07:01:58.712Z,97598.68
2018-12-14T07:04:26.278Z,97600.77
2018-12-14T07:06:53.813Z,97603.59
2018-12-14T07:09:21.318Z,97606.95
2018-12-14T07:11:48.830Z,97609.59
2018-12-14T07:14:16.339Z,97611.86
2018-12-14T07:16:43.903Z,97616.08
2018-12-14T07:19:11.505Z,97613.75
2018-12-14T07:21:39.057Z,97614.47
2018-12-14T07:24:06.766Z,97615.73
2018-12-14T07:26:35.315Z,97623.86
2018-12-14T07:29:03.062Z,97624.00
2018-12-14T07:31:30.877Z,97624.55
2018-12-14T07:33:58.467Z,97623.83
2018-12-14T07:36:26.074Z,97629.11
2018-12-14T07:38:53.680Z,97628.94
2018-12-14T07:41:21.197Z,97628.63
2018-12-14T07:43:48.725Z,97631.78
2018-12-14T07:46:16.265Z,97625.80
2018-12-14T07:48:45.823Z,97633.25
2018-12-14T07:51:13.404Z,97638.72
2018-12-14T07:53:40.951Z,97640.84
2018-12-14T07:56:08.501Z,97640.48
2018-12-14T07:58:37.918Z,97647.17
2018-12-14T08:01:05.468Z,97650.17
2018-12-14T08:03:33.299Z,97652.09
2018-12-14T08:06:00.883Z,97654.37
2018-12-14T08:08:28.429Z,97656.84
2018-12-14T08:10:56.008Z,97660.37
2018-12-14T08:13:23.509Z,97660.02
2018-12-14T08:15:51.009Z,97667.41
2018-12-14T08:18:18.503Z,97664.43
2018-12-14T08:20:46.013Z,97670.61
2018-12-14T08:23:13.550Z,97670.23
2018-12-14T08:25:41.048Z,97670.59
2018-12-14T08:28:08.536Z,97676.39
2018-12-14T08:30:36.042Z,97674.11
2018-12-14T08:33:03.540Z,97548.01
2018-12-14T08:35:31.076Z,97675.69
2018-12-14T08:37:58.586Z,97675.17
2018-12-14T08:40:26.085Z,97672.70
2018-12-14T08:42:53.589Z,97678.18
2018-12-14T08:45:21.092Z,97682.73
2018-12-14T08:47:48.768Z,97684.16
2018-12-14T08:50:16.272Z,97678.17
2018-12-14T08:52:45.217Z,97687.50
2018-12-14T08:55:12.928Z,97690.13
2018-12-14T08:57:40.460Z,97693.13
2018-12-14T09:00:08.053Z,97696.48
2018-12-14T09:02:35.566Z,97693.31
2018-12-14T09:05:03.086Z,97691.90
2018-12-14T09:07:30.591Z,97696.29
2018-12-14T09:09:58.138Z,97698.95
2018-12-14T09:12:25.647Z,97698.95
2018-12-14T09:14:53.150Z,97701.41
2018-12-14T09:17:20.697Z,97701.77
2018-12-14T09:19:49.304Z,97710.95
2018-12-14T09:22:16.806Z,97712.53
2018-12-14T09:24:44.347Z,97714.45
2018-12-14T09:27:11.845Z,97715.88
2018-12-14T09:29:39.348Z,97715.16
2018-12-14T09:32:06.868Z,97719.23
2018-12-14T09:34:34.654Z,97723.10
2018-12-14T09:37:02.147Z,97720.28
2018-12-14T09:39:29.652Z,97728.23
2018-12-14T09:41:57.170Z,97724.33
2018-12-14T09:44:24.663Z,97730.16
2018-12-14T09:46:52.219Z,97727.34
2018-12-14T09:49:20.002Z,97723.64
2018-12-14T09:51:47.613Z,97588.53
2018-12-14T09:54:15.534Z,97730.52
2018-12-14T09:56:43.071Z,97725.03
2018-12-14T09:59:10.573Z,97723.63
2018-12-14T10:01:38.223Z,97732.80
2018-12-14T10:04:06.127Z,97731.73
2018-12-14T10:06:34.638Z,97738.42
2018-12-14T10:09:02.339Z,97734.72
2018-12-14T10:11:29.841Z,97729.80
2018-12-14T10:14:00.787Z,97742.31
2018-12-14T10:16:27.161Z,97732.27
2018-12-14T10:18:54.945Z,97738.28
2018-12-14T10:21:22.462Z,97737.20
2018-12-14T10:23:49.989Z,97732.96
2018-12-14T10:26:17.502Z,97740.55
2018-12-14T10:28:45.002Z,97740.92
2018-12-14T10:31:12.505Z,97739.14
2018-12-14T10:33:40.127Z,97736.67
2018-12-14T10:36:07.668Z,97737.89
2018-12-14T10:38:35.189Z,97730.31
2018-12-14T10:41:02.722Z,97731.38
2018-12-14T10:43:30.266Z,97738.58
2018-12-14T10:45:57.991Z,97729.42
2018-12-14T10:48:25.492Z,97733.45
2018-12-14T10:50:53.067Z,97734.68
2018-12-14T10:53:20.568Z,97731.15
2018-12-14T10:55:48.081Z,97732.39
2018-12-14T10:58:15.757Z,97733.25
2018-12-14T11:00:48.896Z,97731.13
2018-12-14T11:03:16.392Z,97740.15
2018-12-14T11:05:43.885Z,97740.31
2018-12-14T11:08:11.385Z,97738.73
2018-12-14T11:10:38.907Z,97732.24
2018-12-14T11:13:06.413Z,97737.01
2018-12-14T11:15:33.942Z,97734.88
2018-12-14T11:18:01.473Z,97732.93
2018-12-14T11:20:28.973Z,97710.17
2018-12-14T11:22:56.462Z,97733.59
2018-12-14T11:25:23.976Z,97734.11
2018-12-14T11:27:51.609Z,97731.26
2018-12-14T11:30:19.173Z,97735.14
2018-12-14T11:32:46.718Z,97732.11
2018-12-14T11:35:14.269Z,97730.50
2018-12-14T11:37:41.809Z,97728.37
2018-12-14T11:40:09.463Z,97736.67
2018-12-14T11:42:37.082Z,97730.33
2018-12-14T11:45:05.631Z,97729.26
2018-12-14T11:47:33.141Z,97725.04
2018-12-14T11:50:00.709Z,97727.86
2018-12-14T11:52:28.259Z,97722.61
2018-12-14T11:54:56.607Z,97723.13
2018-12-14T11:57:24.156Z,97728.78
2018-12-14T11:59:51.737Z,97726.70
2018-12-14T12:02:19.274Z,97725.49
2018-12-14T12:04:46.847Z,97724.95
2018-12-14T12:07:14.437Z,97726.38
2018-12-14T12:09:41.913Z,97724.98
2018-12-14T12:12:09.429Z,97725.32
2018-12-14T12:14:36.919Z,97608.70
2018-12-14T12:17:04.413Z,97727.08
2018-12-14T12:19:31.915Z,97726.01
2018-12-14T12:21:59.568Z,97725.11
2018-12-14T12:24:27.093Z,97728.30
2018-12-14T12:29:28.402Z,97733.42
2018-12-14T12:31:55.939Z,97735.55
2018-12-14T12:34:23.427Z,97742.59
2018-12-14T12:36:50.905Z,97730.41
2018-12-14T12:39:18.409Z,97730.75
2018-12-14T12:41:45.888Z,97727.03
2018-12-14T12:44:13.620Z,97731.98
2018-12-14T12:46:41.112Z,97730.02
2018-12-14T12:49:08.627Z,97729.64
2018-12-14T12:51:36.216Z,97730.23
2018-12-14T12:54:10.006Z,97732.19
2018-12-14T12:56:37.503Z,97730.98
2018-12-14T12:59:04.994Z,97728.70
2018-12-14T13:01:32.477Z,97728.88
2018-12-14T13:03:59.992Z,97731.89
2018-12-14T13:06:27.525Z,97731.73
2018-12-14T13:08:54.999Z,97747.95
2018-12-14T13:11:22.515Z,97737.55
2018-12-14T13:13:50.055Z,97729.44
2018-12-14T13:16:17.540Z,97732.63
2018-12-14T13:18:45.036Z,97732.97
2018-12-14T13:21:12.527Z,97734.38
2018-12-14T13:23:40.017Z,97732.42
2018-12-14T13:26:07.498Z,97734.92
2018-12-14T13:28:35.191Z,97736.66
2018-12-14T13:31:02.694Z,97737.22
2018-12-14T13:33:30.249Z,97737.20
2018-12-14T13:35:57.738Z,97745.86
2018-12-14T13:38:25.223Z,97752.72
2018-12-14T13:40:52.726Z,97749.89
2018-12-14T13:43:20.229Z,97748.66
2018-12-14T13:45:47.702Z,97758.89
2018-12-14T13:48:15.240Z,97758.89
2018-12-14T13:50:42.838Z,97758.72
2018-12-14T13:53:10.322Z,97756.42
2018-12-14T13:55:37.831Z,97759.79
2018-12-14T13:58:05.319Z,97763.14
2018-12-14T14:00:32.822Z,97761.53
2018-12-14T14:03:00.319Z,97760.13
2018-12-14T14:05:27.862Z,97759.41
2018-12-14T14:07:55.401Z,97767.37
2018-12-14T14:10:22.925Z,97766.47
2018-12-14T14:12:50.534Z,97766.50
2018-12-14T14:15:20.973Z,97766.47
2018-12-14T14:17:47.726Z,97769.31
2018-12-14T14:20:15.208Z,97779.01
2018-12-14T14:22:42.894Z,97773.35
2018-12-14T14:25:10.378Z,97779.19
2018-12-14T14:27:37.870Z,97780.41
2018-12-14T14:30:07.148Z,97786.59
2018-12-14T14:32:34.630Z,97782.00
2018-12-14T14:35:02.102Z,97789.06
2018-12-14T14:37:29.586Z,97791.19
2018-12-14T14:39:57.058Z,97790.45
2018-12-14T14:42:24.533Z,97795.94
2018-12-14T14:44:52.006Z,97800.53
2018-12-14T14:47:19.526Z,97801.05
2018-12-14T14:49:47.029Z,97806.53
2018-12-14T14:52:14.522Z,97808.28
2018-12-14T14:54:42.013Z,97813.39
2018-12-14T14:57:09.518Z,97818.00
2018-12-14T14:59:37.007Z,97814.81
2018-12-14T15:02:04.488Z,97812.69
2018-12-14T15:04:32.063Z,97814.45
2018-12-14T15:06:59.617Z,97814.82
2018-12-14T15:09:27.080Z,97815.70
2018-12-14T15:11:54.557Z,97816.40
2018-12-14T15:14:22.035Z,97819.41
2018-12-14T15:16:49.553Z,97816.41
2018-12-14T15:19:17.028Z,97823.81
2018-12-14T15:21:44.516Z,97827.51
2018-12-14T15:24:11.992Z,97828.23
2018-12-14T15:26:39.623Z,97830.88
2018-12-14T15:29:07.169Z,97831.92
2018-12-14T15:31:34.670Z,97831.92
2018-12-14T15:34:02.137Z,97828.95
2018-12-14T15:36:29.619Z,97835.30
2018-12-14T15:38:57.109Z,97835.30
2018-12-14T15:41:24.590Z,97843.21
2018-12-14T15:43:52.064Z,97848.14
2018-12-14T15:46:19.574Z,97853.45
2018-12-14T15:48:47.058Z,97850.45
2018-12-14T15:51:14.549Z,97858.39
2018-12-14T15:53:42.073Z,97857.33
2018-12-14T15:56:09.559Z,97852.20
2018-12-14T15:58:37.047Z,97855.89
2018-12-14T16:01:04.531Z,97856.98
2018-12-14T16:03:32.010Z,97864.19
2018-12-14T16:05:59.583Z,97864.19
2018-12-14T16:08:27.067Z,97864.39
2018-12-14T16:10:54.569Z,97863.17
2018-12-14T16:13:22.062Z,97866.14
2018-12-14T16:15:49.652Z,97862.08
2018-12-14T16:18:17.141Z,97867.37
2018-12-14T16:20:44.748Z,97867.72
2018-12-14T16:23:12.249Z,97867.91
2018-12-14T16:25:39.749Z,97873.20
2018-12-14T16:28:07.248Z,97873.72
2018-12-14T16:30:34.731Z,97877.80
2018-12-14T16:33:02.225Z,97880.97
2018-12-14T16:35:29.697Z,97889.43
2018-12-14T16:37:57.170Z,97886.98
2018-12-14T16:40:24.651Z,97883.44
2018-12-14T16:42:52.126Z,97888.05
2018-12-14T16:45:26.184Z,97885.55
2018-12-14T16:47:49.110Z,97886.64
2018-12-14T16:50:16.606Z,97889.97
2018-12-14T16:52:44.083Z,97897.38
2018-12-14T16:55:11.569Z,97901.09
2018-12-14T16:57:39.047Z,97900.23
2018-12-14T17:00:07.590Z,97904.28
2018-12-14T17:02:35.067Z,97906.20
2018-12-14T17:05:02.555Z,97903.36
2018-12-14T17:07:30.049Z,97913.43
2018-12-14T17:09:57.531Z,97910.61
2018-12-14T17:12:25.014Z,97919.75
2018-12-14T17:14:52.493Z,97916.62
2018-12-14T17:17:19.966Z,97926.13
2018-12-14T17:19:47.447Z,97919.63
2018-12-14T17:22:14.936Z,97923.15
2018-12-14T17:24:42.415Z,97923.16
2018-12-14T17:27:09.982Z,97928.10
2018-12-14T17:29:37.482Z,97919.26
2018-12-14T17:32:04.954Z,97919.44
2018-12-14T17:34:32.427Z,97919.63
2018-12-14T17:36:59.895Z,97918.05
2018-12-14T17:39:27.390Z,97920.33
2018-12-14T17:41:54.904Z,97920.50
2018-12-14T17:44:22.373Z,97921.03
2018-12-14T17:46:50.026Z,97934.47
2018-12-14T17:49:17.549Z,97929.85
2018-12-14T17:51:45.219Z,97937.63
2018-12-14T17:54:12.686Z,97929.33
2018-12-14T17:56:40.164Z,97932.70
2018-12-14T17:59:07.661Z,97937.27
2018-12-14T18:01:35.154Z,97932.52
2018-12-14T18:04:02.626Z,97934.45
2018-12-14T18:06:30.120Z,97942.77
2018-12-14T18:08:57.599Z,97940.12
2018-12-14T18:11:25.081Z,97942.57
2018-12-14T18:13:52.549Z,97942.75
2018-12-14T18:16:20.114Z,97939.39
2018-12-14T18:18:47.611Z,97937.09
2018-12-14T18:21:15.088Z,97936.21
2018-12-14T18:23:42.572Z,97937.65
2018-12-14T18:26:10.034Z,97938.86
2018-12-14T18:28:39.421Z,97936.77
2018-12-14T18:31:06.902Z,97940.98
2018-12-14T18:33:34.380Z,97941.69
2018-12-14T18:36:01.858Z,97941.34
2018-12-14T18:38:29.338Z,97951.92
2018-12-14T18:40:56.815Z,97946.30
2018-12-14T18:43:24.293Z,97951.06
2018-12-14T18:45:53.362Z,97950.34
2018-12-14T18:48:21.218Z,97952.28
2018-12-14T18:50:48.692Z,97959.19
2018-12-14T18:53:16.175Z,97956.53
2018-12-14T18:55:44.762Z,97955.64
2018-12-14T18:58:12.335Z,97956.88
2018-12-14T19:00:39.839Z,97957.75
2018-12-14T19:03:07.301Z,97965.69
2018-12-14T19:05:34.791Z,97980.50
2018-12-14T19:08:02.291Z,97963.39
2018-12-14T19:10:29.763Z,97962.48
2018-12-14T19:12:57.239Z,97962.33
2018-12-14T19:15:24.709Z,97971.85
2018-12-14T19:17:52.183Z,97973.09
2018-12-14T19:20:19.658Z,97970.44
2018-12-14T19:22:47.138Z,97967.47
2018-12-14T19:25:14.642Z,97973.64
2018-12-14T19:27:42.113Z,97975.75
2018-12-14T19:30:09.601Z,97977.52
2018-12-14T19:32:37.071Z,97979.13
2018-12-14T19:35:05.311Z,97983.72
2018-12-14T19:37:32.794Z,97988.84
2018-12-14T19:40:00.307Z,97996.25
2018-12-14T19:42:27.782Z,98005.09
2018-12-14T19:44:55.263Z,98008.44
2018-12-14T19:47:22.850Z,98017.27
2018-12-14T19:49:50.410Z,98017.27
2018-12-14T19:52:17.878Z,98033.34
2018-12-14T19:54:45.432Z,98025.59
2018-12-14T19:57:12.990Z,98027.51
2018-12-14T19:59:40.471Z,98028.92
2018-12-14T20:02:07.948Z,98030.33
2018-12-14T20:04:35.484Z,98029.45
2018-12-14T20:07:03.415Z,98028.20
2018-12-14T20:09:30.966Z,98032.83
2018-12-14T20:11:58.462Z,98030.70
2018-12-14T20:14:26.988Z,98031.04
2018-12-14T20:16:54.496Z,98028.23
2018-12-14T20:19:21.979Z,98038.45
2018-12-14T20:21:49.473Z,98040.77
2018-12-14T20:24:17.042Z,98046.73
2018-12-14T20:26:44.523Z,98044.08
2018-12-14T20:29:12.021Z,98045.97
2018-12-14T20:31:39.490Z,98045.78
2018-12-14T20:34:07.027Z,98043.64
2018-12-14T20:36:34.591Z,98051.55
2018-12-14T20:39:02.089Z,98049.25
2018-12-14T20:41:29.628Z,98053.84
2018-12-14T20:43:57.159Z,98058.23
2018-12-14T20:46:24.652Z,98059.30
2018-12-14T20:48:52.155Z,98059.30
2018-12-14T20:51:19.643Z,98050.14
2018-12-14T20:53:47.405Z,98053.29
2018-12-14T20:56:14.910Z,98061.39
2018-12-14T20:58:42.471Z,98062.45
2018-12-14T21:01:11.943Z,98063.31
2018-12-14T21:03:39.499Z,98062.42
2018-12-14T21:06:07.012Z,98062.08
2018-12-14T21:08:34.553Z,98069.30
2018-12-14T21:11:02.052Z,98064.52
2018-12-14T21:13:29.539Z,98062.39
2018-12-14T21:15:57.010Z,98063.81
2018-12-14T21:18:24.493Z,98062.02
2018-12-14T21:20:52.025Z,98082.30
2018-12-14T21:23:19.537Z,98062.02
2018-12-14T21:25:47.022Z,98074.37
2018-12-14T21:28:14.502Z,98067.34
2018-12-14T21:30:42.000Z,98062.20
2018-12-14T21:33:09.481Z,98065.75
2018-12-14T21:35:36.961Z,98066.10
2018-12-14T21:38:04.502Z,98073.14
2018-12-14T21:40:31.977Z,98077.70
2018-12-14T21:42:59.486Z,98077.19
2018-12-14T21:45:27.041Z,98075.61
2018-12-14T21:47:54.613Z,98082.12
2018-12-14T21:50:22.112Z,98079.31
2018-12-14T21:52:49.642Z,98076.84
2018-12-14T21:55:17.167Z,98075.77
2018-12-14T21:57:44.730Z,98075.77
2018-12-14T22:00:12.225Z,98068.17
2018-12-14T22:02:39.706Z,98068.52
2018-12-14T22:05:07.964Z,98069.06
2018-12-14T22:07:35.470Z,98056.91
2018-12-14T22:10:03.509Z,98064.50
2018-12-14T22:12:31.071Z,98064.31
2018-12-14T22:14:58.550Z,98068.02
2018-12-14T22:17:26.058Z,98066.60
2018-12-14T22:19:53.555Z,98064.81
2018-12-14T22:22:21.081Z,98060.77
2018-12-14T22:24:48.619Z,98067.47
2018-12-14T22:27:16.102Z,98064.63
2018-12-14T22:29:43.603Z,98061.61
2018-12-14T22:32:12.050Z,98060.56
2018-12-14T22:34:39.525Z,98060.72
2018-12-14T22:37:07.017Z,96931.78
2018-12-14T22:39:34.883Z,98056.11
2018-12-14T22:42:02.465Z,98054.02
2018-12-14T22:44:29.950Z,98056.48
2018-12-14T22:46:57.429Z,98057.72
2018-12-14T22:49:24.934Z,98063.89
2018-12-14T22:51:52.430Z,98061.23
2018-12-14T22:54:19.922Z,98065.30
2018-12-14T22:56:47.417Z,98072.22
2018-12-14T22:59:14.909Z,98069.56
2018-12-14T23:01:42.412Z,98076.78
2018-12-14T23:04:09.913Z,98018.96
2018-12-14T23:06:37.434Z,98079.97
2018-12-14T23:09:07.029Z,98077.84
2018-12-14T23:11:35.327Z,98085.92
2018-12-14T23:14:02.825Z,98071.67
2018-12-14T23:16:30.318Z,98068.83
2018-12-14T23:18:58.274Z,98062.84
2018-12-14T23:21:25.779Z,98065.84
2018-12-14T23:23:53.281Z,98065.13
2018-12-14T23:26:20.790Z,98069.02
2018-12-14T23:28:48.270Z,98072.16
2018-12-14T23:31:15.758Z,98069.88
2018-12-14T23:33:43.242Z,98067.94
2018-12-14T23:36:10.729Z,98067.94
2018-12-14T23:38:38.210Z,98060.00
2018-12-14T23:41:05.703Z,98063.89
2018-12-14T23:43:33.206Z,98067.78
2018-12-14T23:46:00.719Z,98063.03
2018-12-14T23:48:28.217Z,98067.96
2018-12-14T23:50:55.718Z,98071.14
2018-12-14T23:53:23.206Z,98081.02
2018-12-14T23:55:50.720Z,98071.66
2018-12-14T23:58:18.234Z,98079.97
